Time;durP1;ratioP1;P1;durP2;ratioP2;P2;SDS_P1;SDS_P2;PMS_P1;PMS_P2;Temp;Humidity;BMP_temperature;BMP_pressure;BME280_temperature;BME280_humidity;BME280_pressure;Samples;Min_cycle;Max_cycle;Signal;HPM_P1;HPM_P2
2020/12/23 00:00:11;;;;;;;12.65;6.47;;;;;;;11.02;76.98;100144.58;2259108;78;29221;-68
2020/12/23 00:03:15;;;;;;;8.23;5.70;;;;;;;11.02;76.95;100163.80;2256948;78;27774;-69
2020/12/23 00:06:17;;;;;;;8.40;5.10;;;;;;;10.97;76.97;100142.61;2235435;78;28815;-68
2020/12/23 00:09:19;;;;;;;7.22;5.00;;;;;;;10.95;76.93;100157.91;2227735;78;31186;-66
2020/12/23 00:12:21;;;;;;;6.95;5.03;;;;;;;10.96;76.91;100149.41;2223213;78;33205;-69
2020/12/23 00:15:24;;;;;;;8.30;5.22;;;;;;;10.94;76.88;100135.61;2258195;78;29733;-69
2020/12/23 00:18:28;;;;;;;6.78;4.65;;;;;;;10.96;76.87;100135.52;2258233;78;28229;-69
2020/12/23 00:21:33;;;;;;;7.20;4.97;;;;;;;10.96;76.82;100129.30;2258452;78;29677;-69
2020/12/23 00:24:35;;;;;;;9.58;5.35;;;;;;;10.94;76.72;100141.43;2221764;78;31114;-68
2020/12/23 00:27:37;;;;;;;11.28;5.65;;;;;;;10.90;76.61;100158.64;2218294;80;33157;-69
2020/12/23 00:30:41;;;;;;;8.55;5.80;;;;;;;10.85;76.57;100166.05;2224441;78;28951;-67
2020/12/23 00:33:44;;;;;;;10.40;5.83;;;;;;;10.81;76.67;100158.66;2235319;78;27725;-68
2020/12/23 00:36:54;;;;;;;15.72;7.45;;;;;;;10.80;76.72;100144.87;2218367;80;29751;-65
2020/12/23 00:39:56;;;;;;;15.48;7.65;;;;;;;10.81;76.73;100160.45;2217091;80;31201;-69
2020/12/23 00:42:59;;;;;;;12.30;6.25;;;;;;;10.78;76.78;100163.69;2233884;78;33110;-65
2020/12/23 00:46:02;;;;;;;7.35;5.55;;;;;;;10.79;76.86;100177.48;2258719;78;29847;-66
2020/12/23 00:49:04;;;;;;;8.45;5.78;;;;;;;10.78;76.88;100178.91;2259277;78;27740;-64
2020/12/23 00:52:06;;;;;;;12.25;6.60;;;;;;;10.79;76.89;100172.61;2257185;78;28818;-70
2020/12/23 00:55:09;;;;;;;11.53;6.12;;;;;;;10.79;76.96;100171.27;2260838;78;32154;-69
2020/12/23 00:58:12;;;;;;;10.58;5.83;;;;;;;10.79;77.05;100173.95;2257226;78;33176;-69
2020/12/23 01:01:15;;;;;;;8.18;5.08;;;;;;;10.80;77.04;100171.67;2257164;78;28912;-70
2020/12/23 01:04:17;;;;;;;7.97;5.80;;;;;;;10.82;77.00;100164.41;2261052;78;27738;-69
2020/12/23 01:07:19;;;;;;;11.05;6.67;;;;;;;10.84;77.01;100166.52;2223707;79;28804;-68
2020/12/23 01:10:21;;;;;;;7.62;5.72;;;;;;;10.85;76.97;100156.67;2222627;79;31148;-69
2020/12/23 01:13:23;;;;;;;10.43;5.70;;;;;;;10.87;76.89;100162.83;2225622;78;33223;-68
2020/12/23 01:16:26;;;;;;;7.50;5.45;;;;;;;10.85;76.83;100154.00;2252402;78;28853;-65
2020/12/23 01:19:28;;;;;;;9.23;6.17;;;;;;;10.84;76.77;100153.60;2263748;77;27694;-69
2020/12/23 01:22:30;;;;;;;8.93;5.30;;;;;;;10.81;76.71;100161.80;2257951;78;28744;-66
2020/12/23 01:25:32;;;;;;;9.88;6.45;;;;;;;10.77;76.68;100173.16;2244599;78;32060;-68
2020/12/23 01:28:34;;;;;;;7.80;5.45;;;;;;;10.73;76.65;100180.96;2264169;78;33291;-67
2020/12/23 01:31:36;;;;;;;8.70;5.40;;;;;;;10.70;76.66;100177.98;2264092;78;29804;-71
2020/12/23 01:34:38;;;;;;;9.58;5.55;;;;;;;10.70;76.67;100184.67;2253978;78;27598;-65
2020/12/23 01:37:41;;;;;;;8.85;6.00;;;;;;;10.70;76.67;100178.43;2258329;78;29332;-67
2020/12/23 01:40:43;;;;;;;8.53;5.92;;;;;;;10.69;76.64;100177.58;2254645;78;31610;-66
2020/12/23 01:43:54;;;;;;;7.87;5.78;;;;;;;10.68;76.57;100174.97;2243156;78;33095;-70
2020/12/23 01:46:57;;;;;;;9.30;5.97;;;;;;;10.64;76.53;100175.15;2213601;78;28929;-69
2020/12/23 01:50:01;;;;;;;10.15;7.15;;;;;;;10.60;76.49;100165.98;2248544;78;27750;-65
2020/12/23 01:53:03;;;;;;;9.85;6.15;;;;;;;10.58;76.56;100171.92;2262718;78;28769;-68
2020/12/23 01:56:06;;;;;;;11.60;6.17;;;;;;;10.57;76.59;100163.01;2259582;78;32353;-68
2020/12/23 01:59:08;;;;;;;9.93;6.78;;;;;;;10.57;76.68;100168.36;2259637;78;33121;-66
2020/12/23 02:02:33;;;;;;;11.22;6.58;;;;;;;10.56;76.49;100185.87;2256742;77;30114;-69
2020/12/23 02:05:37;;;;;;;8.65;5.45;;;;;;;10.53;76.40;100190.89;2219104;80;27657;-67
2020/12/23 02:08:41;;;;;;;10.40;5.37;;;;;;;10.51;76.51;100198.13;2244386;78;28889;-68
2020/12/23 02:11:46;;;;;;;7.50;5.25;;;;;;;10.51;76.49;100206.66;2258736;78;31570;-69
2020/12/23 02:14:48;;;;;;;;;;;;;;;10.47;76.49;100197.92;2262029;78;33038;-66
2020/12/23 02:17:51;;;;;;;12.65;7.62;;;;;;;10.45;76.61;100197.98;2259518;78;29161;-67
2020/12/23 02:20:53;;;;;;;12.47;6.37;;;;;;;10.43;76.66;100203.03;2220879;78;27667;-64
2020/12/23 02:23:55;;;;;;;11.83;7.15;;;;;;;10.42;76.71;100190.13;2219528;80;29818;-64
2020/12/23 02:26:57;;;;;;;12.25;7.12;;;;;;;10.44;76.70;100196.73;2219456;79;31174;-67
2020/12/23 02:30:00;;;;;;;11.55;8.00;;;;;;;10.46;76.72;100197.03;2273927;77;33153;-69
2020/12/23 02:33:03;;;;;;;9.50;8.10;;;;;;;10.49;76.73;100192.87;2301698;77;30092;-64
2020/12/23 02:36:05;;;;;;;11.93;7.90;;;;;;;10.51;76.75;100199.47;2271469;77;27643;-68
2020/12/23 02:39:07;;;;;;;17.12;8.18;;;;;;;10.52;76.68;100196.34;2246767;78;28925;-67
2020/12/23 02:42:10;;;;;;;12.20;7.70;;;;;;;10.51;76.62;100201.30;2219383;78;31167;-68
2020/12/23 02:45:12;;;;;;;9.30;6.40;;;;;;;10.48;76.56;100195.15;2218685;78;33117;-68
2020/12/23 02:48:14;;;;;;;7.30;5.28;;;;;;;10.47;76.54;100193.41;2220184;78;30081;-69
2020/12/23 02:51:16;;;;;;;6.55;4.90;;;;;;;10.46;76.41;100184.13;2235982;78;27656;-67
2020/12/23 02:54:19;;;;;;;10.75;4.53;;;;;;;10.44;76.40;100181.52;2258430;78;28044;-69
2020/12/23 02:57:21;;;;;;;5.67;4.28;;;;;;;10.43;76.28;100178.92;2269600;78;31168;-70
2020/12/23 03:00:23;;;;;;;6.72;4.30;;;;;;;10.39;76.24;100180.91;2259137;78;32281;-69
2020/12/23 03:03:25;;;;;;;11.40;3.85;;;;;;;10.34;76.24;100183.75;2259327;78;29159;-68
2020/12/23 03:06:27;;;;;;;5.33;3.40;;;;;;;10.25;76.05;100184.23;2259630;78;28139;-68
2020/12/23 03:09:30;;;;;;;4.05;2.85;;;;;;;10.19;76.27;100186.75;2241764;78;29787;-69
2020/12/23 03:12:32;;;;;;;3.27;2.50;;;;;;;10.16;76.21;100190.91;2219360;79;31112;-68
2020/12/23 03:15:34;;;;;;;3.33;2.50;;;;;;;10.11;76.19;100181.38;2219335;80;33981;-67
2020/12/23 03:18:36;;;;;;;3.22;2.00;;;;;;;10.06;76.26;100182.95;2221525;78;29151;-68
2020/12/23 03:21:38;;;;;;;3.35;2.58;;;;;;;9.98;76.18;100182.00;2219631;78;27774;-69
2020/12/23 03:24:40;;;;;;;5.28;2.27;;;;;;;9.95;76.38;100176.79;2220098;78;29310;-69
2020/12/23 03:27:42;;;;;;;3.33;2.50;;;;;;;9.95;76.45;100178.58;2219013;80;30907;-69
2020/12/23 03:30:44;;;;;;;3.00;2.40;;;;;;;9.93;76.37;100173.80;2221837;78;34087;-66
2020/12/23 03:33:46;;;;;;;3.58;2.37;;;;;;;9.91;76.43;100159.63;2219450;80;29615;-66
2020/12/23 03:36:48;;;;;;;2.77;2.30;;;;;;;9.90;76.54;100157.41;2219457;79;27677;-68
2020/12/23 03:39:50;;;;;;;3.95;2.50;;;;;;;9.92;76.61;100172.07;2238615;78;28751;-69
2020/12/23 03:42:53;;;;;;;2.30;2.10;;;;;;;9.93;76.60;100176.00;2223300;78;32104;-68
2020/12/23 03:45:55;;;;;;;5.25;2.55;;;;;;;9.94;76.61;100184.88;2230557;78;33997;-67
2020/12/23 03:48:57;;;;;;;2.65;2.45;;;;;;;9.94;76.61;100185.76;2241100;78;29150;-68
2020/12/23 03:51:59;;;;;;;4.62;2.77;;;;;;;9.95;76.61;100186.16;2219808;78;27860;-68
2020/12/23 03:55:01;;;;;;;3.83;2.40;;;;;;;9.95;76.58;100186.61;2256517;77;28815;-66
2020/12/23 03:58:04;;;;;;;4.53;2.70;;;;;;;9.92;76.63;100180.95;2253995;78;31129;-71
2020/12/23 04:01:06;;;;;;;3.08;2.55;;;;;;;9.93;76.62;100185.84;2220781;78;33172;-71
2020/12/23 04:04:08;;;;;;;2.75;2.50;;;;;;;9.94;76.67;100194.23;2218393;80;29158;-72
2020/12/23 04:07:11;;;;;;;3.45;2.22;;;;;;;9.94;76.66;100189.77;2206300;78;27507;-67
2020/12/23 04:10:13;;;;;;;3.80;2.37;;;;;;;9.94;76.64;100188.44;2213572;78;28867;-71
2020/12/23 04:13:16;;;;;;;2.60;2.27;;;;;;;9.94;76.68;100184.42;2218412;78;31184;-70
2020/12/23 04:16:18;;;;;;;3.35;2.40;;;;;;;9.93;76.64;100187.19;2217464;80;33100;-69
2020/12/23 04:19:20;;;;;;;4.58;2.72;;;;;;;9.91;76.60;100199.28;2225730;78;29211;-71
2020/12/23 04:25:51;;;;;;;4.70;2.60;;;;;;;9.91;76.65;100197.09;2248369;78;32743;-71
2020/12/23 04:28:56;;;;;;;4.28;2.95;;;;;;;9.83;76.69;100197.47;2214777;80;27749;-70
2020/12/23 04:35:14;;;;;;;3.70;3.07;;;;;;;9.86;76.76;100203.98;2311152;76;33351;-70
2020/12/23 04:38:17;;;;;;;4.25;2.98;;;;;;;9.80;76.68;100210.50;2303950;77;27686;-71
2020/12/23 04:41:19;;;;;;;3.75;3.27;;;;;;;9.80;76.71;100207.82;2303822;77;29766;-70
2020/12/23 04:44:23;;;;;;;5.90;3.33;;;;;;;9.78;76.73;100209.70;2293659;77;32367;-71
2020/12/23 04:47:26;;;;;;;3.80;3.22;;;;;;;9.76;76.75;100213.41;2191554;80;34113;-72
2020/12/23 04:50:32;;;;;;;8.45;4.60;;;;;;;9.73;76.77;100206.40;2222100;78;29542;-66
2020/12/23 04:53:34;;;;;;;6.70;3.90;;;;;;;9.71;76.80;100201.11;2222381;80;27642;-71
2020/12/23 04:56:37;;;;;;;16.55;5.28;;;;;;;9.71;76.89;100197.58;2181745;81;29463;-70
2020/12/23 04:59:39;;;;;;;9.58;5.75;;;;;;;9.70;76.88;100198.52;2139692;83;31157;-70
2020/12/23 05:02:42;;;;;;;10.45;5.47;;;;;;;9.70;76.90;100207.39;2178870;81;34096;-63
2020/12/23 05:05:44;;;;;;;9.55;5.42;;;;;;;9.69;76.95;100203.47;2141724;81;30150;-69
2020/12/23 05:08:48;;;;;;;9.73;6.42;;;;;;;9.69;76.97;100211.48;2178474;81;27698;-68
2020/12/23 05:11:51;;;;;;;11.77;6.73;;;;;;;9.66;76.90;100211.17;2139759;83;30003;-70
2020/12/23 05:14:53;;;;;;;13.43;7.53;;;;;;;9.66;76.96;100212.52;2178500;81;31116;-71
2020/12/23 05:17:56;;;;;;;9.30;6.28;;;;;;;9.66;76.91;100216.98;2152631;81;33601;-71
2020/12/23 05:20:58;;;;;;;8.58;5.45;;;;;;;9.65;76.93;100213.91;2189975;80;29811;-63
2020/12/23 05:24:01;;;;;;;8.88;6.28;;;;;;;9.65;76.96;100208.55;2138587;83;27680;-68
2020/12/23 05:27:06;;;;;;;13.28;7.33;;;;;;;9.65;76.94;100207.22;2149606;81;29678;-71
2020/12/23 05:30:10;;;;;;;11.40;7.05;;;;;;;9.64;76.99;100205.03;2178898;81;31138;-70
2020/12/23 05:33:12;;;;;;;13.45;8.03;;;;;;;9.63;76.95;100205.08;2178430;80;33120;-68
2020/12/23 05:36:18;;;;;;;13.15;6.67;;;;;;;9.62;76.99;100211.38;2185122;80;28887;-70
2020/12/23 05:39:20;;;;;;;7.03;6.28;;;;;;;9.61;76.98;100213.64;2221429;80;27672;-70
2020/12/23 05:42:23;;;;;;;13.32;6.72;;;;;;;9.58;76.93;100212.88;2221300;80;28851;-67
2020/12/23 05:45:26;;;;;;;13.90;8.00;;;;;;;9.58;76.97;100211.54;2202674;80;31146;-68
2020/12/23 05:48:32;;;;;;;7.53;5.17;;;;;;;9.58;77.03;100210.66;2181300;80;33127;-71
2020/12/23 05:51:39;;;;;;;10.70;7.25;;;;;;;9.58;77.01;100207.98;2154016;81;28861;-69
2020/12/23 05:54:41;;;;;;;8.75;6.45;;;;;;;9.58;76.99;100222.69;2181559;81;27668;-68
2020/12/23 05:57:45;;;;;;;8.63;6.65;;;;;;;9.56;77.02;100208.52;2154189;81;28890;-71
2020/12/23 06:00:51;;;;;;;12.80;7.70;;;;;;;9.54;77.00;100203.70;2181915;81;31556;-69
2020/12/23 06:03:56;;;;;;;13.25;7.60;;;;;;;9.52;77.02;100202.45;2181486;81;33163;-71
2020/12/23 06:07:05;;;;;;;22.93;12.37;;;;;;;9.51;77.04;100203.39;2181247;81;28854;-65
2020/12/23 06:10:09;;;;;;;13.28;8.15;;;;;;;9.50;76.91;100204.33;2181804;81;27645;-71
2020/12/23 06:13:12;;;;;;;10.93;7.60;;;;;;;9.50;77.05;100215.52;2182261;80;28625;-70
2020/12/23 06:16:18;;;;;;;11.83;8.28;;;;;;;9.52;77.09;100209.14;2153581;81;32023;-69
2020/12/23 06:19:28;;;;;;;12.28;8.58;;;;;;;9.51;77.08;100212.75;2216730;80;33099;-71
2020/12/23 06:22:30;;;;;;;18.85;12.82;;;;;;;9.52;77.03;100201.57;2220555;80;28922;-71
2020/12/23 06:25:35;;;;;;;15.75;10.35;;;;;;;9.49;76.93;100202.59;2219953;80;27541;-71
2020/12/23 06:28:38;;;;;;;23.52;14.07;;;;;;;9.48;76.95;100210.22;2220024;80;28800;-72
2020/12/23 06:31:48;;;;;;;31.73;21.85;;;;;;;9.45;76.96;100204.16;2220713;80;32111;-72
2020/12/23 06:35:01;;;;;;;32.05;20.37;;;;;;;9.42;76.94;100213.20;2222404;80;33164;-72
2020/12/23 06:38:22;;;;;;;16.17;8.85;;;;;;;9.43;76.98;100217.13;2183144;81;28868;-71
2020/12/23 06:41:24;;;;;;;14.80;9.15;;;;;;;9.43;76.91;100213.11;2222911;80;27617;-68
2020/12/23 06:44:47;;;;;;;16.60;8.88;;;;;;;9.45;77.01;100204.16;2177984;81;28833;-70
2020/12/23 06:47:49;;;;;;;27.52;18.50;;;;;;;9.45;77.04;100228.22;2170570;81;31145;-71
2020/12/23 06:50:52;;;;;;;25.40;18.35;;;;;;;9.46;77.08;100226.80;2147525;82;34146;-71
2020/12/23 06:53:54;;;;;;;14.23;9.55;;;;;;;9.46;77.03;100227.28;2185107;81;29958;-72
2020/12/23 06:56:56;;;;;;;12.50;8.83;;;;;;;9.43;77.05;100230.49;2167987;80;27707;-67
2020/12/23 06:59:58;;;;;;;9.43;7.90;;;;;;;9.43;77.02;100229.16;2223025;80;28823;-70
2020/12/23 07:03:07;;;;;;;13.88;9.35;;;;;;;9.44;77.03;100226.00;2223080;80;31194;-70
2020/12/23 07:06:31;;;;;;;12.37;8.48;;;;;;;9.45;77.05;100233.08;2207918;80;33120;-69
2020/12/23 07:09:33;;;;;;;14.43;9.28;;;;;;;9.47;77.02;100230.36;2222941;80;28859;-68
2020/12/23 07:12:39;;;;;;;12.70;10.20;;;;;;;9.48;77.08;100224.92;2207637;80;28322;-69
2020/12/23 07:15:55;;;;;;;15.15;9.88;;;;;;;9.49;77.08;100232.50;2223043;80;28871;-67
2020/12/23 07:18:57;;;;;;;13.75;9.88;;;;;;;9.48;77.06;100229.42;2159302;80;31140;-72
2020/12/23 07:22:00;;;;;;;17.27;10.58;;;;;;;9.47;77.09;100235.22;2156833;81;33118;-66
2020/12/23 07:25:05;;;;;;;15.48;8.98;;;;;;;9.44;77.03;100235.35;2156905;81;29197;-66
2020/12/23 07:28:09;;;;;;;18.05;10.40;;;;;;;9.46;77.05;100231.30;2145803;83;28814;-67
2020/12/23 07:31:11;;;;;;;13.85;10.25;;;;;;;9.46;76.99;100238.83;2185099;81;28543;-68
2020/12/23 07:34:14;;;;;;;16.37;10.93;;;;;;;9.46;77.09;100233.48;2143180;82;31171;-73
2020/12/23 07:37:16;;;;;;;31.57;18.77;;;;;;;9.51;77.15;100249.34;2202207;80;33083;-70
2020/12/23 07:40:19;;;;;;;35.83;24.90;;;;;;;9.52;77.11;100243.91;2176020;81;28936;-72
2020/12/23 07:43:22;;;;;;;27.95;16.93;;;;;;;9.53;77.11;100240.30;2213354;80;27665;-69
2020/12/23 07:46:24;;;;;;;17.48;11.90;;;;;;;9.54;77.08;100248.72;2169417;81;28823;-69
2020/12/23 07:49:28;;;;;;;20.00;11.43;;;;;;;9.54;77.01;100247.84;2140563;83;32027;-71
2020/12/23 07:52:31;;;;;;;18.62;10.45;;;;;;;9.53;76.91;100251.45;2162777;81;33106;-71
2020/12/23 07:55:34;;;;;;;15.98;11.10;;;;;;;9.53;76.92;100263.48;2138604;83;28849;-72
2020/12/23 07:58:36;;;;;;;19.45;10.48;;;;;;;9.55;77.04;100252.25;2207651;80;27773;-64
2020/12/23 08:01:41;;;;;;;18.92;10.98;;;;;;;9.58;77.11;100248.98;2210574;80;28815;-65
2020/12/23 08:04:44;;;;;;;16.95;9.73;;;;;;;9.62;77.07;100256.84;2211478;80;31352;-69
2020/12/23 08:07:47;;;;;;;17.82;10.53;;;;;;;9.64;77.06;100256.30;2211344;80;34105;-68
2020/12/23 08:10:50;;;;;;;19.90;11.63;;;;;;;9.65;77.04;100262.05;2206268;80;29818;-66
2020/12/23 08:13:52;;;;;;;18.45;10.88;;;;;;;9.64;77.00;100262.54;2157554;81;27613;-68
2020/12/23 08:16:58;;;;;;;17.35;11.15;;;;;;;9.63;76.94;100264.81;2215579;80;28800;-70
2020/12/23 08:20:12;;;;;;;23.77;13.22;;;;;;;9.63;76.91;100258.58;2176032;81;32140;-69
2020/12/23 08:23:15;;;;;;;33.73;17.02;;;;;;;9.63;76.93;100257.23;2216253;80;33118;-72
2020/12/23 08:26:18;;;;;;;32.78;17.45;;;;;;;9.62;76.88;100267.53;2165113;81;28872;-66
2020/12/23 08:29:20;;;;;;;22.00;12.03;;;;;;;9.64;77.04;100262.98;2178202;81;27637;-64
2020/12/23 08:32:28;;;;;;;21.10;11.88;;;;;;;9.64;76.95;100257.64;2175209;81;29768;-65
2020/12/23 08:35:46;;;;;;;16.60;10.95;;;;;;;9.66;77.08;100249.08;2177431;81;31081;-69
2020/12/23 08:38:49;;;;;;;24.82;15.35;;;;;;;9.68;77.00;100249.88;2179045;81;33957;-66
2020/12/23 08:41:53;;;;;;;29.30;15.50;;;;;;;9.69;77.06;100260.49;2178720;81;29992;-67
2020/12/23 08:44:56;;;;;;;43.10;22.85;;;;;;;9.71;77.03;100269.32;2165876;80;27756;-69
2020/12/23 08:47:59;;;;;;;50.75;30.55;;;;;;;9.75;77.02;100271.41;2217349;80;28754;-71
2020/12/23 08:51:04;;;;;;;55.17;34.55;;;;;;;9.75;76.97;100270.06;2217586;80;30389;-72
2020/12/23 08:54:14;;;;;;;47.78;28.75;;;;;;;9.76;76.95;100269.12;2217182;80;33142;-73
2020/12/23 08:57:25;;;;;;;43.13;27.98;;;;;;;9.80;77.09;100268.02;2217449;80;28862;-73
2020/12/23 09:00:28;;;;;;;39.50;26.17;;;;;;;9.84;77.10;100267.43;2211003;80;27797;-74
2020/12/23 09:03:30;;;;;;;28.52;13.22;;;;;;;9.84;76.93;100262.08;2178873;81;29017;-72
2020/12/23 09:06:36;;;;;;;21.07;9.80;;;;;;;9.85;77.02;100254.42;2178696;80;31212;-70
2020/12/23 09:09:39;;;;;;;17.12;9.60;;;;;;;9.83;76.78;100241.13;2178053;81;33105;-73
2020/12/23 09:12:41;;;;;;;18.32;10.08;;;;;;;9.81;76.76;100241.67;2178862;81;29791;-73
2020/12/23 09:15:52;;;;;;;26.90;12.33;;;;;;;9.81;76.63;100244.83;2178957;81;27600;-74
2020/12/23 09:18:51;;;;;;;39.65;26.70;;;;;;;9.75;76.54;100235.73;2177396;81;29037;-73
2020/12/23 09:21:56;;;;;;;35.92;25.35;;;;;;;9.70;76.50;100235.97;2179130;81;31178;-72
2020/12/23 09:25:18;;;;;;;;;;;;;;;9.69;76.74;100248.94;2193228;80;34035;-72
2020/12/23 09:28:23;;;;;;;31.37;19.67;;;;;;;9.66;76.57;100242.39;2212291;80;28853;-73
2020/12/23 09:31:27;;;;;;;26.85;18.62;;;;;;;9.63;76.69;100242.08;2179299;81;27655;-73
2020/12/23 09:34:29;;;;;;;37.10;19.95;;;;;;;9.66;76.96;100250.41;2178175;81;29819;-73
2020/12/23 09:37:32;;;;;;;29.72;18.25;;;;;;;9.70;76.90;100252.87;2201436;80;31176;-74
2020/12/23 09:40:37;;;;;;;30.72;18.50;;;;;;;9.71;76.71;100256.42;2213793;80;32008;-73
2020/12/23 09:43:39;;;;;;;;;;;;;;;9.76;76.92;100257.55;2216233;80;29999;-74
2020/12/23 09:46:41;;;;;;;37.28;26.25;;;;;;;9.81;77.01;100252.37;2178773;80;27692;-74
2020/12/23 09:49:43;;;;;;;65.52;45.65;;;;;;;9.84;76.98;100242.02;2175254;81;29782;-73
2020/12/23 09:52:46;;;;;;;49.58;31.02;;;;;;;9.89;76.95;100245.31;2175427;81;31110;-74
2020/12/23 09:55:49;;;;;;;33.50;21.80;;;;;;;9.93;76.96;100236.20;2175399;81;33121;-73
2020/12/23 09:58:51;;;;;;;37.28;23.12;;;;;;;9.96;76.89;100248.56;2175380;81;30407;-74
2020/12/23 10:01:54;;;;;;;31.50;18.48;;;;;;;9.97;76.56;100240.93;2175541;81;27645;-74
2020/12/23 10:04:56;;;;;;;76.92;44.45;;;;;;;10.00;76.71;100231.42;2175364;81;28882;-73
2020/12/23 10:08:00;;;;;;;31.27;20.20;;;;;;;10.04;76.55;100232.53;2207399;80;31123;-73
2020/12/23 10:11:02;;;;;;;26.55;16.45;;;;;;;10.04;76.41;100234.35;2186046;80;33969;-72
2020/12/23 10:14:05;;;;;;;27.42;18.35;;;;;;;10.08;76.52;100241.75;2175026;81;29171;-75
2020/12/23 10:17:09;;;;;;;32.65;21.87;;;;;;;10.10;76.18;100251.92;2174873;81;27765;-75
2020/12/23 10:20:34;;;;;;;37.40;23.22;;;;;;;10.12;76.53;100244.20;2175404;81;30160;-75
2020/12/23 10:23:37;;;;;;;41.73;24.00;;;;;;;10.12;76.17;100236.66;2124426;83;31139;-73
2020/12/23 10:26:41;;;;;;;43.00;28.05;;;;;;;10.04;76.09;100229.00;2120871;83;34179;-72
2020/12/23 10:29:44;;;;;;;26.40;16.50;;;;;;;10.00;76.31;100226.06;2120858;83;29170;-73
2020/12/23 10:32:47;;;;;;;51.45;35.55;;;;;;;9.99;76.32;100218.98;2121089;83;27843;-74
2020/12/23 10:35:50;;;;;;;50.08;34.18;;;;;;;9.98;76.36;100214.56;2120949;83;28842;-75
2020/12/23 10:38:52;;;;;;;46.88;30.85;;;;;;;9.98;76.46;100199.39;2120246;83;32125;-74
2020/12/23 10:41:56;;;;;;;46.35;29.50;;;;;;;10.00;76.45;100197.97;2119670;83;33128;-73
2020/12/23 10:44:58;;;;;;;45.33;27.93;;;;;;;10.03;76.52;100190.65;2150904;82;30125;-71
2020/12/23 10:48:00;;;;;;;40.30;24.92;;;;;;;10.08;76.61;100186.88;2158051;82;28351;-74
2020/12/23 10:51:03;;;;;;;46.23;30.43;;;;;;;10.06;76.29;100189.65;2158485;82;29595;-74
2020/12/23 10:54:06;;;;;;;33.23;22.70;;;;;;;10.04;76.45;100191.05;2133502;82;32297;-74
2020/12/23 10:57:08;;;;;;;27.73;19.45;;;;;;;10.08;76.65;100177.06;2125430;83;33187;-74
2020/12/23 11:00:11;;;;;;;29.15;19.92;;;;;;;10.13;76.46;100173.66;2125483;83;28365;-73
2020/12/23 11:03:14;;;;;;;28.95;20.05;;;;;;;10.16;76.30;100176.19;2125463;83;27696;-73
2020/12/23 11:06:16;;;;;;;37.58;26.87;;;;;;;10.24;76.60;100175.80;2125374;83;28823;-71
2020/12/23 11:09:20;;;;;;;28.17;18.02;;;;;;;10.37;76.54;100173.38;2139840;82;32162;-71
2020/12/23 11:12:22;;;;;;;42.23;26.75;;;;;;;10.39;76.06;100166.17;2158371;82;33207;-65
2020/12/23 11:15:26;;;;;;;25.17;18.20;;;;;;;10.32;75.85;100154.88;2159447;82;29160;-70
2020/12/23 11:18:29;;;;;;;29.60;19.23;;;;;;;10.34;76.18;100165.02;2159582;82;28214;-72
2020/12/23 11:21:33;;;;;;;23.25;16.93;;;;;;;10.37;76.21;100157.77;2157138;82;28819;-70
2020/12/23 11:24:36;;;;;;;26.07;18.62;;;;;;;10.37;75.99;100155.98;2173294;81;34828;-73
2020/12/23 11:27:39;;;;;;;19.30;13.48;;;;;;;10.36;76.07;100150.22;2173181;81;33635;-69
2020/12/23 11:30:43;;;;;;;16.73;11.78;;;;;;;10.39;75.85;100159.94;2172640;81;30213;-72
2020/12/23 11:33:46;;;;;;;15.00;11.12;;;;;;;10.40;75.78;100167.03;2180736;81;28225;-72
2020/12/23 11:36:49;;;;;;;18.30;13.22;;;;;;;10.35;75.62;100161.88;2166490;81;29013;-70
2020/12/23 11:39:51;;;;;;;14.10;10.63;;;;;;;10.31;75.54;100154.94;2124889;83;31196;-69
2020/12/23 11:42:54;;;;;;;28.95;20.05;;;;;;;10.31;75.70;100154.94;2125622;83;33126;-70
2020/12/23 11:45:57;;;;;;;15.98;12.25;;;;;;;10.30;75.63;100161.23;2125999;83;30034;-70
2020/12/23 11:49:00;;;;;;;15.53;11.57;;;;;;;10.32;75.90;100164.70;2141533;81;27758;-70
2020/12/23 11:52:03;;;;;;;15.60;10.55;;;;;;;10.32;75.72;100169.61;2173064;81;28817;-71
2020/12/23 11:55:06;;;;;;;16.80;10.55;;;;;;;10.33;75.89;100162.42;2172750;81;32210;-68
2020/12/23 11:58:09;;;;;;;18.15;11.33;;;;;;;10.34;75.55;100157.47;2173310;81;33996;-67
2020/12/23 12:01:12;;;;;;;17.17;12.28;;;;;;;10.34;75.81;100166.84;2173428;81;29561;-68
2020/12/23 12:04:15;;;;;;;16.90;11.63;;;;;;;10.38;75.80;100159.50;2165722;81;27679;-68
2020/12/23 12:07:19;;;;;;;19.60;14.40;;;;;;;10.39;75.71;100159.94;2185577;81;28869;-72
2020/12/23 12:10:39;;;;;;;17.60;12.47;;;;;;;10.40;75.72;100159.88;2185908;80;31135;-70
2020/12/23 12:13:55;;;;;;;;;;;;;;;;;;;;;
2020/12/23 12:17:01;;;;;;;21.33;13.22;;;;;;;10.44;75.68;100152.54;2248749;78;32145;-68
2020/12/23 12:20:04;;;;;;;16.73;11.55;;;;;;;10.37;75.46;100159.11;2228571;79;27775;-67
2020/12/23 12:23:07;;;;;;;17.23;13.03;;;;;;;10.37;75.71;100164.02;2228784;79;28811;-68
2020/12/23 12:26:09;;;;;;;19.98;13.25;;;;;;;10.36;75.50;100172.98;2227483;79;31337;-68
2020/12/23 12:29:22;;;;;;;20.43;13.83;;;;;;;10.34;75.62;100165.50;2195344;79;33347;-67
2020/12/23 12:32:24;;;;;;;21.20;14.28;;;;;;;10.34;75.66;100162.82;2227401;79;28550;-67
2020/12/23 12:35:27;;;;;;;20.90;15.50;;;;;;;10.31;75.79;100157.16;2179489;81;27693;-68
2020/12/23 12:38:30;;;;;;;22.93;14.63;;;;;;;10.34;75.87;100149.44;2178896;81;29902;-69
2020/12/23 12:41:33;;;;;;;19.82;15.40;;;;;;;10.32;75.87;100137.93;2179400;81;32005;-68
2020/12/23 12:44:35;;;;;;;28.90;17.35;;;;;;;10.32;75.88;100146.84;2179277;81;33105;-70
2020/12/23 12:47:38;;;;;;;28.27;15.85;;;;;;;10.31;75.94;100145.56;2179445;81;28850;-69
2020/12/23 12:50:41;;;;;;;26.85;15.98;;;;;;;10.30;75.87;100146.51;2199010;80;27591;-66
2020/12/23 12:53:44;;;;;;;22.75;14.95;;;;;;;10.34;75.97;100146.27;2187439;80;28818;-65
2020/12/23 12:56:46;;;;;;;23.95;15.30;;;;;;;10.34;75.94;100145.42;2218073;80;31126;-65
2020/12/23 12:59:49;;;;;;;18.12;12.28;;;;;;;10.34;75.84;100141.40;2217920;80;34061;-65
2020/12/23 13:02:53;;;;;;;18.48;11.60;;;;;;;10.37;75.91;100136.34;2218093;80;29733;-67
2020/12/23 13:05:56;;;;;;;16.40;10.63;;;;;;;10.40;75.89;100137.56;2207058;80;27593;-64
2020/12/23 13:09:02;;;;;;;17.67;10.20;;;;;;;10.44;76.06;100132.45;2217944;80;28900;-65
2020/12/23 13:12:04;;;;;;;20.57;11.12;;;;;;;10.47;75.94;100139.84;2217823;80;31211;-68
2020/12/23 13:15:07;;;;;;;16.50;10.58;;;;;;;10.51;75.99;100143.22;2214837;80;33107;-70
2020/12/23 13:18:13;;;;;;;18.80;11.73;;;;;;;10.53;75.95;100127.95;2218142;79;29279;-66
2020/12/23 13:21:15;;;;;;;16.95;12.18;;;;;;;10.59;76.00;100120.94;2219224;80;27622;-67
2020/12/23 13:24:18;;;;;;;23.07;15.28;;;;;;;10.62;75.95;100114.08;2218188;80;29253;-69
2020/12/23 13:27:21;;;;;;;26.87;17.27;;;;;;;10.70;75.90;100116.81;2217488;80;31150;-68
2020/12/23 13:30:24;;;;;;;30.37;17.75;;;;;;;10.67;75.64;100111.64;2217212;80;33125;-70
2020/12/23 13:33:27;;;;;;;30.90;18.87;;;;;;;10.64;75.74;100114.87;2217491;80;28177;-66
2020/12/23 13:36:30;;;;;;;31.12;18.70;;;;;;;10.67;75.85;100115.66;2220230;79;27696;-68
2020/12/23 13:39:33;;;;;;;29.18;16.12;;;;;;;10.65;75.77;100110.36;2225144;80;28811;-68
2020/12/23 13:42:35;;;;;;;28.07;16.62;;;;;;;10.61;75.72;100108.33;2210701;80;32358;-65
2020/12/23 13:45:39;;;;;;;28.57;16.73;;;;;;;10.58;75.82;100111.66;2173396;80;35376;-65
2020/12/23 13:48:41;;;;;;;35.08;20.00;;;;;;;10.59;75.91;100112.05;2179609;80;28855;-64
2020/12/23 13:51:49;;;;;;;34.50;20.12;;;;;;;10.66;76.03;100122.81;2161569;81;27791;-71
2020/12/23 13:54:51;;;;;;;31.82;18.95;;;;;;;10.72;76.01;100114.47;2200837;80;28794;-72
2020/12/23 13:57:54;;;;;;;29.80;17.23;;;;;;;10.75;75.98;100115.64;2206939;80;31145;-72
2020/12/23 14:00:56;;;;;;;34.67;21.20;;;;;;;10.78;75.95;100112.77;2217226;80;33649;-71
2020/12/23 14:03:58;;;;;;;35.60;20.10;;;;;;;10.79;75.84;100107.81;2184384;79;28679;-70
2020/12/23 14:07:00;;;;;;;35.60;20.05;;;;;;;10.79;75.85;100102.45;2188902;79;28201;-69
2020/12/23 14:10:04;;;;;;;38.65;21.12;;;;;;;10.83;75.90;100099.16;2214871;79;29248;-69
2020/12/23 14:13:06;;;;;;;34.60;19.42;;;;;;;10.85;75.87;100103.08;2207352;79;31177;-68
2020/12/23 14:16:08;;;;;;;33.25;19.23;;;;;;;10.85;75.85;100103.93;2207712;80;33618;-68